sensor_id;sensor_type;location;lat;lon;timestamp;temperature;humidity
871;DHT22;422;51.280;7.236;2022-08-19T00:01:34;17.10;99.90
871;DHT22;422;51.280;7.236;2022-08-19T00:04:08;17.00;99.90
871;DHT22;422;51.280;7.236;2022-08-19T00:06:38;17.00;99.90
871;DHT22;422;51.280;7.236;2022-08-19T00:09:07;17.00;99.90
871;DHT22;422;51.280;7.236;2022-08-19T00:11:35;17.00;99.90
871;DHT22;422;51.280;7.236;2022-08-19T00:14:04;17.00;99.90
871;DHT22;422;51.280;7.236;2022-08-19T00:16:32;17.00;99.90
871;DHT22;422;51.280;7.236;2022-08-19T00:19:00;17.00;99.90
871;DHT22;422;51.280;7.236;2022-08-19T00:21:29;16.90;99.90
871;DHT22;422;51.280;7.236;2022-08-19T00:23:56;16.80;99.90
871;DHT22;422;51.280;7.236;2022-08-19T00:26:24;16.80;99.90
871;DHT22;422;51.280;7.236;2022-08-19T00:28:51;16.70;99.90
871;DHT22;422;51.280;7.236;2022-08-19T00:31:19;16.70;99.90
871;DHT22;422;51.280;7.236;2022-08-19T00:33:46;16.70;99.90
871;DHT22;422;51.280;7.236;2022-08-19T00:36:15;16.70;99.90
871;DHT22;422;51.280;7.236;2022-08-19T00:38:46;16.70;99.90
871;DHT22;422;51.280;7.236;2022-08-19T00:41:19;16.70;99.90
871;DHT22;422;51.280;7.236;2022-08-19T00:43:57;16.60;99.90
871;DHT22;422;51.280;7.236;2022-08-19T00:46:24;16.60;99.90
871;DHT22;422;51.280;7.236;2022-08-19T00:48:52;16.60;1.00
871;DHT22;422;51.280;7.236;2022-08-19T00:51:19;16.60;99.90
871;DHT22;422;51.280;7.236;2022-08-19T00:53:50;16.60;99.90
871;DHT22;422;51.280;7.236;2022-08-19T00:56:17;16.50;99.90
871;DHT22;422;51.280;7.236;2022-08-19T00:58:50;16.50;1.00
871;DHT22;422;51.280;7.236;2022-08-19T01:01:17;16.50;1.00
871;DHT22;422;51.280;7.236;2022-08-19T01:03:44;16.50;1.00
871;DHT22;422;51.280;7.236;2022-08-19T01:06:18;16.40;1.00
871;DHT22;422;51.280;7.236;2022-08-19T01:08:46;16.40;99.90
871;DHT22;422;51.280;7.236;2022-08-19T01:11:14;16.50;1.00
871;DHT22;422;51.280;7.236;2022-08-19T01:13:42;16.40;1.00
871;DHT22;422;51.280;7.236;2022-08-19T01:16:10;16.50;99.90
871;DHT22;422;51.280;7.236;2022-08-19T01:18:41;16.50;99.90
871;DHT22;422;51.280;7.236;2022-08-19T01:21:12;16.40;99.90
871;DHT22;422;51.280;7.236;2022-08-19T01:23:45;16.40;99.90
871;DHT22;422;51.280;7.236;2022-08-19T01:26:17;16.40;99.90
871;DHT22;422;51.280;7.236;2022-08-19T01:28:49;16.30;99.90
871;DHT22;422;51.280;7.236;2022-08-19T01:31:20;16.30;99.90
871;DHT22;422;51.280;7.236;2022-08-19T01:33:47;16.30;99.90
871;DHT22;422;51.280;7.236;2022-08-19T01:36:23;16.20;1.00
871;DHT22;422;51.280;7.236;2022-08-19T01:38:52;16.30;1.00
871;DHT22;422;51.280;7.236;2022-08-19T01:41:20;16.20;1.00
871;DHT22;422;51.280;7.236;2022-08-19T01:43:49;16.20;1.00
871;DHT22;422;51.280;7.236;2022-08-19T01:46:17;16.20;1.00
871;DHT22;422;51.280;7.236;2022-08-19T01:48:45;16.20;1.00
871;DHT22;422;51.280;7.236;2022-08-19T01:51:15;16.20;1.00
871;DHT22;422;51.280;7.236;2022-08-19T01:53:42;16.10;1.00
871;DHT22;422;51.280;7.236;2022-08-19T01:56:14;16.10;1.00
871;DHT22;422;51.280;7.236;2022-08-19T01:58:44;16.00;69.30
871;DHT22;422;51.280;7.236;2022-08-19T02:01:14;16.00;99.90
871;DHT22;422;51.280;7.236;2022-08-19T02:03:41;16.00;99.90
871;DHT22;422;51.280;7.236;2022-08-19T02:06:08;16.00;99.90
871;DHT22;422;51.280;7.236;2022-08-19T02:08:38;16.00;99.90
871;DHT22;422;51.280;7.236;2022-08-19T02:11:06;16.10;99.90
871;DHT22;422;51.280;7.236;2022-08-19T02:13:35;16.10;29.40
871;DHT22;422;51.280;7.236;2022-08-19T02:16:03;16.00;1.00
871;DHT22;422;51.280;7.236;2022-08-19T02:18:30;16.00;1.00
871;DHT22;422;51.280;7.236;2022-08-19T02:20:57;16.00;1.00
871;DHT22;422;51.280;7.236;2022-08-19T02:23:24;15.90;1.00
871;DHT22;422;51.280;7.236;2022-08-19T02:25:52;16.00;1.00
871;DHT22;422;51.280;7.236;2022-08-19T02:28:25;15.90;1.00
871;DHT22;422;51.280;7.236;2022-08-19T02:30:53;16.00;47.90
871;DHT22;422;51.280;7.236;2022-08-19T02:33:26;16.00;99.90
871;DHT22;422;51.280;7.236;2022-08-19T02:35:53;15.90;99.90
871;DHT22;422;51.280;7.236;2022-08-19T02:38:21;15.80;99.90
871;DHT22;422;51.280;7.236;2022-08-19T02:40:54;15.90;1.00
871;DHT22;422;51.280;7.236;2022-08-19T02:43:26;15.80;1.00
871;DHT22;422;51.280;7.236;2022-08-19T02:45:55;15.80;1.00
871;DHT22;422;51.280;7.236;2022-08-19T02:48:24;15.90;1.00
871;DHT22;422;51.280;7.236;2022-08-19T02:50:54;15.90;1.00
871;DHT22;422;51.280;7.236;2022-08-19T02:53:23;16.00;99.90
871;DHT22;422;51.280;7.236;2022-08-19T02:55:50;15.90;99.90
871;DHT22;422;51.280;7.236;2022-08-19T02:58:18;15.90;99.90
871;DHT22;422;51.280;7.236;2022-08-19T03:00:47;15.90;99.90
871;DHT22;422;51.280;7.236;2022-08-19T03:03:17;15.90;99.90
871;DHT22;422;51.280;7.236;2022-08-19T03:05:47;15.90;1.00
871;DHT22;422;51.280;7.236;2022-08-19T03:08:15;16.00;99.90
871;DHT22;422;51.280;7.236;2022-08-19T03:10:44;16.00;99.90
871;DHT22;422;51.280;7.236;2022-08-19T03:13:14;15.90;99.90
871;DHT22;422;51.280;7.236;2022-08-19T03:15:42;15.90;1.00
871;DHT22;422;51.280;7.236;2022-08-19T03:18:10;15.90;1.00
871;DHT22;422;51.280;7.236;2022-08-19T03:20:43;15.90;1.00
871;DHT22;422;51.280;7.236;2022-08-19T03:23:11;15.80;1.00
871;DHT22;422;51.280;7.236;2022-08-19T03:25:40;15.80;1.00
871;DHT22;422;51.280;7.236;2022-08-19T03:28:09;15.70;99.90
871;DHT22;422;51.280;7.236;2022-08-19T03:30:40;15.70;99.90
871;DHT22;422;51.280;7.236;2022-08-19T03:33:10;15.70;99.90
871;DHT22;422;51.280;7.236;2022-08-19T03:35:38;15.70;1.00
871;DHT22;422;51.280;7.236;2022-08-19T03:38:10;15.70;1.00
871;DHT22;422;51.280;7.236;2022-08-19T03:40:37;15.80;1.00
871;DHT22;422;51.280;7.236;2022-08-19T03:43:06;15.70;99.90
871;DHT22;422;51.280;7.236;2022-08-19T03:45:34;15.70;99.90
871;DHT22;422;51.280;7.236;2022-08-19T03:48:02;15.70;99.90
871;DHT22;422;51.280;7.236;2022-08-19T03:50:29;15.60;99.90
871;DHT22;422;51.280;7.236;2022-08-19T03:52:57;15.70;99.90
871;DHT22;422;51.280;7.236;2022-08-19T03:55:27;15.60;99.90
871;DHT22;422;51.280;7.236;2022-08-19T03:57:58;15.60;99.90
871;DHT22;422;51.280;7.236;2022-08-19T04:00:25;15.50;99.90
871;DHT22;422;51.280;7.236;2022-08-19T04:02:53;15.60;99.90
871;DHT22;422;51.280;7.236;2022-08-19T04:05:20;15.50;99.90
871;DHT22;422;51.280;7.236;2022-08-19T04:07:48;15.50;1.00
871;DHT22;422;51.280;7.236;2022-08-19T04:10:15;15.60;99.90
871;DHT22;422;51.280;7.236;2022-08-19T04:12:50;15.50;99.90
871;DHT22;422;51.280;7.236;2022-08-19T04:15:20;15.50;99.90
871;DHT22;422;51.280;7.236;2022-08-19T04:17:48;15.50;99.90
871;DHT22;422;51.280;7.236;2022-08-19T04:20:15;15.50;99.90
871;DHT22;422;51.280;7.236;2022-08-19T04:22:42;15.60;99.90
871;DHT22;422;51.280;7.236;2022-08-19T04:25:10;15.50;93.40
871;DHT22;422;51.280;7.236;2022-08-19T04:27:37;15.60;99.90
871;DHT22;422;51.280;7.236;2022-08-19T04:30:08;15.60;99.90
871;DHT22;422;51.280;7.236;2022-08-19T04:32:37;15.60;99.90
871;DHT22;422;51.280;7.236;2022-08-19T04:35:07;15.60;99.90
871;DHT22;422;51.280;7.236;2022-08-19T04:37:35;15.50;99.90
871;DHT22;422;51.280;7.236;2022-08-19T04:40:05;15.50;99.90
871;DHT22;422;51.280;7.236;2022-08-19T04:42:50;15.50;1.00
871;DHT22;422;51.280;7.236;2022-08-19T04:45:25;15.50;1.00
871;DHT22;422;51.280;7.236;2022-08-19T04:47:56;15.60;99.90
871;DHT22;422;51.280;7.236;2022-08-19T04:50:24;15.70;1.00
871;DHT22;422;51.280;7.236;2022-08-19T04:52:52;15.70;1.00
871;DHT22;422;51.280;7.236;2022-08-19T04:55:21;15.80;1.00
871;DHT22;422;51.280;7.236;2022-08-19T04:57:51;15.80;99.90
871;DHT22;422;51.280;7.236;2022-08-19T05:00:20;15.80;1.00
871;DHT22;422;51.280;7.236;2022-08-19T05:02:47;15.80;31.00
871;DHT22;422;51.280;7.236;2022-08-19T05:05:18;15.80;1.00
871;DHT22;422;51.280;7.236;2022-08-19T05:07:45;15.90;1.00
871;DHT22;422;51.280;7.236;2022-08-19T05:10:13;16.00;1.00
871;DHT22;422;51.280;7.236;2022-08-19T05:12:42;16.00;1.00
871;DHT22;422;51.280;7.236;2022-08-19T05:15:11;16.00;1.00
871;DHT22;422;51.280;7.236;2022-08-19T05:17:39;15.90;99.90
871;DHT22;422;51.280;7.236;2022-08-19T05:20:28;16.00;1.00
871;DHT22;422;51.280;7.236;2022-08-19T05:23:32;16.20;99.90
871;DHT22;422;51.280;7.236;2022-08-19T05:26:00;16.40;99.90
871;DHT22;422;51.280;7.236;2022-08-19T05:28:27;16.50;1.00
871;DHT22;422;51.280;7.236;2022-08-19T05:30:54;16.60;99.90
871;DHT22;422;51.280;7.236;2022-08-19T05:33:30;16.50;1.00
871;DHT22;422;51.280;7.236;2022-08-19T05:35:57;16.50;1.00
871;DHT22;422;51.280;7.236;2022-08-19T05:38:24;16.50;99.90
871;DHT22;422;51.280;7.236;2022-08-19T05:40:53;16.50;99.90
871;DHT22;422;51.280;7.236;2022-08-19T05:43:20;16.60;99.90
871;DHT22;422;51.280;7.236;2022-08-19T05:45:48;16.60;99.90
871;DHT22;422;51.280;7.236;2022-08-19T05:48:16;16.60;99.90
871;DHT22;422;51.280;7.236;2022-08-19T05:50:47;16.60;99.90
871;DHT22;422;51.280;7.236;2022-08-19T05:53:16;16.60;99.90
871;DHT22;422;51.280;7.236;2022-08-19T05:55:43;16.70;99.90
871;DHT22;422;51.280;7.236;2022-08-19T05:58:11;16.80;99.90
871;DHT22;422;51.280;7.236;2022-08-19T06:00:39;16.80;99.90
871;DHT22;422;51.280;7.236;2022-08-19T06:03:06;16.80;99.90
871;DHT22;422;51.280;7.236;2022-08-19T06:05:33;16.90;99.90
871;DHT22;422;51.280;7.236;2022-08-19T06:08:02;16.90;99.90
871;DHT22;422;51.280;7.236;2022-08-19T06:10:31;17.10;99.90
871;DHT22;422;51.280;7.236;2022-08-19T06:12:58;17.20;99.90
871;DHT22;422;51.280;7.236;2022-08-19T06:15:26;17.30;99.90
871;DHT22;422;51.280;7.236;2022-08-19T06:17:54;17.30;96.70
871;DHT22;422;51.280;7.236;2022-08-19T06:20:21;17.50;99.90
871;DHT22;422;51.280;7.236;2022-08-19T06:22:49;17.60;99.90
871;DHT22;422;51.280;7.236;2022-08-19T06:25:18;17.70;76.30
871;DHT22;422;51.280;7.236;2022-08-19T06:27:46;17.80;39.40
871;DHT22;422;51.280;7.236;2022-08-19T06:30:16;17.90;1.00
871;DHT22;422;51.280;7.236;2022-08-19T06:32:46;18.10;1.00
871;DHT22;422;51.280;7.236;2022-08-19T06:35:16;18.20;1.00
871;DHT22;422;51.280;7.236;2022-08-19T06:37:45;18.40;1.00
871;DHT22;422;51.280;7.236;2022-08-19T06:40:14;18.60;1.00
871;DHT22;422;51.280;7.236;2022-08-19T06:42:42;18.70;1.00
871;DHT22;422;51.280;7.236;2022-08-19T06:45:10;18.80;1.00
871;DHT22;422;51.280;7.236;2022-08-19T06:47:39;18.90;1.00
871;DHT22;422;51.280;7.236;2022-08-19T06:50:13;18.90;1.00
871;DHT22;422;51.280;7.236;2022-08-19T06:52:41;19.00;1.00
871;DHT22;422;51.280;7.236;2022-08-19T06:55:08;19.10;1.00
871;DHT22;422;51.280;7.236;2022-08-19T06:57:36;19.30;1.00
871;DHT22;422;51.280;7.236;2022-08-19T07:00:06;19.50;1.00
871;DHT22;422;51.280;7.236;2022-08-19T07:02:37;19.60;1.00
871;DHT22;422;51.280;7.236;2022-08-19T07:05:05;19.70;1.00
871;DHT22;422;51.280;7.236;2022-08-19T07:07:38;19.80;1.00
871;DHT22;422;51.280;7.236;2022-08-19T07:10:09;20.00;1.00
871;DHT22;422;51.280;7.236;2022-08-19T07:12:36;20.30;1.00
871;DHT22;422;51.280;7.236;2022-08-19T07:15:09;20.60;1.00
871;DHT22;422;51.280;7.236;2022-08-19T07:17:38;20.90;1.00
871;DHT22;422;51.280;7.236;2022-08-19T07:20:10;21.00;1.00
871;DHT22;422;51.280;7.236;2022-08-19T07:22:38;21.20;1.00
871;DHT22;422;51.280;7.236;2022-08-19T07:25:06;21.20;99.90
871;DHT22;422;51.280;7.236;2022-08-19T07:27:34;21.50;1.00
871;DHT22;422;51.280;7.236;2022-08-19T07:30:06;21.50;99.90
871;DHT22;422;51.280;7.236;2022-08-19T07:32:33;21.60;99.90
871;DHT22;422;51.280;7.236;2022-08-19T07:35:03;21.90;99.90
871;DHT22;422;51.280;7.236;2022-08-19T07:37:32;21.90;99.90
871;DHT22;422;51.280;7.236;2022-08-19T07:40:04;21.80;99.90
871;DHT22;422;51.280;7.236;2022-08-19T07:42:33;21.90;99.90
871;DHT22;422;51.280;7.236;2022-08-19T07:45:00;22.10;99.90
871;DHT22;422;51.280;7.236;2022-08-19T07:47:29;22.10;99.90
871;DHT22;422;51.280;7.236;2022-08-19T07:49:56;22.30;99.90
871;DHT22;422;51.280;7.236;2022-08-19T07:52:27;22.40;99.90
871;DHT22;422;51.280;7.236;2022-08-19T07:54:54;22.60;99.90
871;DHT22;422;51.280;7.236;2022-08-19T07:57:21;22.60;99.90
871;DHT22;422;51.280;7.236;2022-08-19T07:59:48;22.50;99.90
871;DHT22;422;51.280;7.236;2022-08-19T08:02:19;22.60;99.90
871;DHT22;422;51.280;7.236;2022-08-19T08:04:48;22.80;99.90
871;DHT22;422;51.280;7.236;2022-08-19T08:07:39;22.80;99.90
871;DHT22;422;51.280;7.236;2022-08-19T08:10:25;22.90;99.90
871;DHT22;422;51.280;7.236;2022-08-19T08:12:52;23.00;99.90
871;DHT22;422;51.280;7.236;2022-08-19T08:15:21;23.30;99.90
871;DHT22;422;51.280;7.236;2022-08-19T08:17:48;23.40;99.90
871;DHT22;422;51.280;7.236;2022-08-19T08:20:18;23.60;99.90
871;DHT22;422;51.280;7.236;2022-08-19T08:22:48;23.50;99.90
871;DHT22;422;51.280;7.236;2022-08-19T08:25:34;23.70;99.90
871;DHT22;422;51.280;7.236;2022-08-19T08:28:04;23.50;99.90
871;DHT22;422;51.280;7.236;2022-08-19T08:30:33;23.50;99.90
871;DHT22;422;51.280;7.236;2022-08-19T08:33:04;23.40;99.90
871;DHT22;422;51.280;7.236;2022-08-19T08:35:33;23.70;99.90
871;DHT22;422;51.280;7.236;2022-08-19T08:38:00;23.80;99.90
871;DHT22;422;51.280;7.236;2022-08-19T08:40:39;24.00;99.90
871;DHT22;422;51.280;7.236;2022-08-19T08:43:23;24.20;99.90
871;DHT22;422;51.280;7.236;2022-08-19T08:45:55;23.90;99.90
871;DHT22;422;51.280;7.236;2022-08-19T08:48:30;23.70;99.90
871;DHT22;422;51.280;7.236;2022-08-19T08:51:16;23.80;99.90
871;DHT22;422;51.280;7.236;2022-08-19T08:53:49;24.00;99.90
871;DHT22;422;51.280;7.236;2022-08-19T08:56:17;24.20;99.90
871;DHT22;422;51.280;7.236;2022-08-19T08:58:51;24.10;99.90
871;DHT22;422;51.280;7.236;2022-08-19T09:01:23;24.20;99.90
871;DHT22;422;51.280;7.236;2022-08-19T09:03:51;24.40;99.90
871;DHT22;422;51.280;7.236;2022-08-19T09:06:26;24.70;99.90
871;DHT22;422;51.280;7.236;2022-08-19T09:09:03;24.50;99.90
871;DHT22;422;51.280;7.236;2022-08-19T09:11:48;24.30;99.90
871;DHT22;422;51.280;7.236;2022-08-19T09:14:28;24.00;99.90
871;DHT22;422;51.280;7.236;2022-08-19T09:17:01;24.70;99.90
871;DHT22;422;51.280;7.236;2022-08-19T09:19:34;24.80;99.90
871;DHT22;422;51.280;7.236;2022-08-19T09:22:03;24.90;99.90
871;DHT22;422;51.280;7.236;2022-08-19T09:24:33;25.00;99.90
871;DHT22;422;51.280;7.236;2022-08-19T09:27:01;25.60;99.90
871;DHT22;422;51.280;7.236;2022-08-19T09:29:29;25.80;99.90
871;DHT22;422;51.280;7.236;2022-08-19T09:31:57;26.20;99.90
871;DHT22;422;51.280;7.236;2022-08-19T09:34:27;26.70;99.90
871;DHT22;422;51.280;7.236;2022-08-19T09:36:57;27.10;99.90
871;DHT22;422;51.280;7.236;2022-08-19T09:39:27;27.10;99.90
871;DHT22;422;51.280;7.236;2022-08-19T09:42:02;27.20;99.90
871;DHT22;422;51.280;7.236;2022-08-19T09:44:30;27.40;99.90
871;DHT22;422;51.280;7.236;2022-08-19T09:47:03;27.10;99.90
871;DHT22;422;51.280;7.236;2022-08-19T09:49:30;27.20;99.90
871;DHT22;422;51.280;7.236;2022-08-19T09:51:58;27.40;99.90
871;DHT22;422;51.280;7.236;2022-08-19T09:54:27;27.80;99.90
871;DHT22;422;51.280;7.236;2022-08-19T09:56:58;27.60;99.90
871;DHT22;422;51.280;7.236;2022-08-19T09:59:29;26.80;99.90
871;DHT22;422;51.280;7.236;2022-08-19T10:02:04;26.80;99.90
871;DHT22;422;51.280;7.236;2022-08-19T10:04:34;27.70;99.90
871;DHT22;422;51.280;7.236;2022-08-19T10:07:20;28.10;99.90
871;DHT22;422;51.280;7.236;2022-08-19T10:09:50;27.60;99.90
871;DHT22;422;51.280;7.236;2022-08-19T10:12:17;27.80;99.90
871;DHT22;422;51.280;7.236;2022-08-19T10:14:49;28.10;99.90
871;DHT22;422;51.280;7.236;2022-08-19T10:17:19;28.30;99.90
871;DHT22;422;51.280;7.236;2022-08-19T10:19:46;28.50;99.90
871;DHT22;422;51.280;7.236;2022-08-19T10:22:15;28.20;99.90
871;DHT22;422;51.280;7.236;2022-08-19T10:24:48;28.20;99.90
871;DHT22;422;51.280;7.236;2022-08-19T10:27:18;28.90;99.90
871;DHT22;422;51.280;7.236;2022-08-19T10:29:45;28.70;99.90
871;DHT22;422;51.280;7.236;2022-08-19T10:32:14;28.10;99.90
871;DHT22;422;51.280;7.236;2022-08-19T10:34:44;27.40;99.90
871;DHT22;422;51.280;7.236;2022-08-19T10:37:15;27.60;99.90
871;DHT22;422;51.280;7.236;2022-08-19T10:39:45;27.00;99.90
871;DHT22;422;51.280;7.236;2022-08-19T10:42:16;26.70;99.90
871;DHT22;422;51.280;7.236;2022-08-19T10:44:45;26.50;99.90
871;DHT22;422;51.280;7.236;2022-08-19T10:47:13;26.50;99.90
871;DHT22;422;51.280;7.236;2022-08-19T10:49:43;27.30;99.90
871;DHT22;422;51.280;7.236;2022-08-19T10:52:28;28.30;99.90
871;DHT22;422;51.280;7.236;2022-08-19T10:55:08;28.90;99.90
871;DHT22;422;51.280;7.236;2022-08-19T10:57:59;29.00;99.90
871;DHT22;422;51.280;7.236;2022-08-19T11:00:28;29.60;99.90
871;DHT22;422;51.280;7.236;2022-08-19T11:02:56;29.50;99.90
871;DHT22;422;51.280;7.236;2022-08-19T11:05:26;28.60;99.90
871;DHT22;422;51.280;7.236;2022-08-19T11:07:53;28.90;99.90
871;DHT22;422;51.280;7.236;2022-08-19T11:10:21;29.00;99.90
871;DHT22;422;51.280;7.236;2022-08-19T11:12:49;29.90;99.90
871;DHT22;422;51.280;7.236;2022-08-19T11:15:20;30.50;99.90
871;DHT22;422;51.280;7.236;2022-08-19T11:17:47;30.20;99.90
871;DHT22;422;51.280;7.236;2022-08-19T11:20:15;29.20;99.90
871;DHT22;422;51.280;7.236;2022-08-19T11:22:42;28.60;99.90
871;DHT22;422;51.280;7.236;2022-08-19T11:25:10;28.50;99.90
871;DHT22;422;51.280;7.236;2022-08-19T11:27:39;28.80;99.90
871;DHT22;422;51.280;7.236;2022-08-19T11:30:11;28.50;99.90
871;DHT22;422;51.280;7.236;2022-08-19T11:32:43;29.50;99.90
871;DHT22;422;51.280;7.236;2022-08-19T11:35:10;29.70;99.90
871;DHT22;422;51.280;7.236;2022-08-19T11:37:41;29.70;99.90
871;DHT22;422;51.280;7.236;2022-08-19T11:40:14;29.90;99.90
871;DHT22;422;51.280;7.236;2022-08-19T11:42:44;29.00;99.90
871;DHT22;422;51.280;7.236;2022-08-19T11:45:29;29.30;99.90
871;DHT22;422;51.280;7.236;2022-08-19T11:48:01;29.20;99.90
871;DHT22;422;51.280;7.236;2022-08-19T11:50:30;28.70;99.90
871;DHT22;422;51.280;7.236;2022-08-19T11:52:58;28.70;99.90
871;DHT22;422;51.280;7.236;2022-08-19T11:55:27;29.30;99.90
871;DHT22;422;51.280;7.236;2022-08-19T11:57:55;30.30;99.90
871;DHT22;422;51.280;7.236;2022-08-19T12:00:22;30.30;99.90
871;DHT22;422;51.280;7.236;2022-08-19T12:02:50;30.50;99.90
871;DHT22;422;51.280;7.236;2022-08-19T12:05:18;30.80;99.90
871;DHT22;422;51.280;7.236;2022-08-19T12:07:50;31.80;99.90
871;DHT22;422;51.280;7.236;2022-08-19T12:10:17;31.90;99.90
871;DHT22;422;51.280;7.236;2022-08-19T12:12:44;30.90;99.90
871;DHT22;422;51.280;7.236;2022-08-19T12:15:12;30.90;99.90
871;DHT22;422;51.280;7.236;2022-08-19T12:17:43;31.30;99.90
871;DHT22;422;51.280;7.236;2022-08-19T12:20:15;31.50;99.90
871;DHT22;422;51.280;7.236;2022-08-19T12:22:47;31.70;99.90
871;DHT22;422;51.280;7.236;2022-08-19T12:25:15;31.60;99.90
871;DHT22;422;51.280;7.236;2022-08-19T12:27:46;31.90;99.90
871;DHT22;422;51.280;7.236;2022-08-19T12:30:17;32.10;99.90
871;DHT22;422;51.280;7.236;2022-08-19T12:32:49;32.30;99.90
871;DHT22;422;51.280;7.236;2022-08-19T12:35:18;32.10;99.90
871;DHT22;422;51.280;7.236;2022-08-19T12:37:48;31.50;99.90
871;DHT22;422;51.280;7.236;2022-08-19T12:40:16;30.90;99.90
871;DHT22;422;51.280;7.236;2022-08-19T12:42:47;29.00;99.90
871;DHT22;422;51.280;7.236;2022-08-19T12:45:16;29.20;99.90
871;DHT22;422;51.280;7.236;2022-08-19T12:47:44;29.40;99.90
871;DHT22;422;51.280;7.236;2022-08-19T12:50:13;29.60;99.90
871;DHT22;422;51.280;7.236;2022-08-19T12:52:40;30.40;99.90
871;DHT22;422;51.280;7.236;2022-08-19T12:55:14;30.40;99.90
871;DHT22;422;51.280;7.236;2022-08-19T12:57:41;31.10;99.90
871;DHT22;422;51.280;7.236;2022-08-19T13:00:14;31.40;99.90
871;DHT22;422;51.280;7.236;2022-08-19T13:02:48;31.60;99.90
871;DHT22;422;51.280;7.236;2022-08-19T13:05:18;32.20;99.90
871;DHT22;422;51.280;7.236;2022-08-19T13:07:50;32.10;99.90
871;DHT22;422;51.280;7.236;2022-08-19T13:10:20;32.10;99.90
871;DHT22;422;51.280;7.236;2022-08-19T13:12:50;32.10;99.90
871;DHT22;422;51.280;7.236;2022-08-19T13:15:22;32.00;99.90
871;DHT22;422;51.280;7.236;2022-08-19T13:17:58;30.80;99.90
871;DHT22;422;51.280;7.236;2022-08-19T13:20:25;31.00;99.90
871;DHT22;422;51.280;7.236;2022-08-19T13:22:53;31.10;99.90
871;DHT22;422;51.280;7.236;2022-08-19T13:25:30;29.90;99.90
871;DHT22;422;51.280;7.236;2022-08-19T13:28:02;29.90;99.90
871;DHT22;422;51.280;7.236;2022-08-19T13:30:32;29.90;99.90
871;DHT22;422;51.280;7.236;2022-08-19T13:33:17;28.90;99.90
871;DHT22;422;51.280;7.236;2022-08-19T13:35:49;28.60;99.90
871;DHT22;422;51.280;7.236;2022-08-19T13:38:21;28.00;99.90
871;DHT22;422;51.280;7.236;2022-08-19T13:40:53;28.40;99.90
871;DHT22;422;51.280;7.236;2022-08-19T13:43:25;29.10;99.90
871;DHT22;422;51.280;7.236;2022-08-19T13:45:54;29.80;99.90
871;DHT22;422;51.280;7.236;2022-08-19T13:48:23;30.40;99.90
871;DHT22;422;51.280;7.236;2022-08-19T13:50:51;30.90;99.90
871;DHT22;422;51.280;7.236;2022-08-19T13:53:22;30.90;99.90
871;DHT22;422;51.280;7.236;2022-08-19T13:55:51;30.60;99.90
871;DHT22;422;51.280;7.236;2022-08-19T13:58:24;30.20;99.90
871;DHT22;422;51.280;7.236;2022-08-19T14:00:53;30.40;99.90
871;DHT22;422;51.280;7.236;2022-08-19T14:03:21;29.50;99.90
871;DHT22;422;51.280;7.236;2022-08-19T14:05:51;30.00;99.90
871;DHT22;422;51.280;7.236;2022-08-19T14:08:19;30.10;99.90
871;DHT22;422;51.280;7.236;2022-08-19T14:10:53;30.80;99.90
871;DHT22;422;51.280;7.236;2022-08-19T14:13:21;30.70;99.90
871;DHT22;422;51.280;7.236;2022-08-19T14:15:50;31.30;99.90
871;DHT22;422;51.280;7.236;2022-08-19T14:18:25;30.50;99.90
871;DHT22;422;51.280;7.236;2022-08-19T14:20:53;31.00;99.90
871;DHT22;422;51.280;7.236;2022-08-19T14:23:21;30.10;99.90
871;DHT22;422;51.280;7.236;2022-08-19T14:25:48;29.10;99.90
871;DHT22;422;51.280;7.236;2022-08-19T14:28:17;29.20;99.90
871;DHT22;422;51.280;7.236;2022-08-19T14:30:50;29.50;99.90
871;DHT22;422;51.280;7.236;2022-08-19T14:33:18;29.40;99.90
871;DHT22;422;51.280;7.236;2022-08-19T14:35:45;28.70;99.90
871;DHT22;422;51.280;7.236;2022-08-19T14:38:16;29.30;99.90
871;DHT22;422;51.280;7.236;2022-08-19T14:40:46;29.10;99.90
871;DHT22;422;51.280;7.236;2022-08-19T14:43:18;28.80;99.90
871;DHT22;422;51.280;7.236;2022-08-19T14:45:49;28.60;99.90
871;DHT22;422;51.280;7.236;2022-08-19T14:48:16;28.20;99.90
871;DHT22;422;51.280;7.236;2022-08-19T14:50:47;28.90;99.90
871;DHT22;422;51.280;7.236;2022-08-19T14:53:16;29.70;99.90
871;DHT22;422;51.280;7.236;2022-08-19T14:55:47;30.00;99.90
871;DHT22;422;51.280;7.236;2022-08-19T14:58:14;30.20;99.90
871;DHT22;422;51.280;7.236;2022-08-19T15:00:46;29.70;99.90
871;DHT22;422;51.280;7.236;2022-08-19T15:03:13;29.10;99.90
871;DHT22;422;51.280;7.236;2022-08-19T15:05:42;28.60;99.90
871;DHT22;422;51.280;7.236;2022-08-19T15:08:16;28.20;99.90
871;DHT22;422;51.280;7.236;2022-08-19T15:10:43;28.50;99.90
871;DHT22;422;51.280;7.236;2022-08-19T15:13:12;28.70;99.90
871;DHT22;422;51.280;7.236;2022-08-19T15:15:42;28.70;99.90
871;DHT22;422;51.280;7.236;2022-08-19T15:18:15;29.10;99.90
871;DHT22;422;51.280;7.236;2022-08-19T15:20:42;29.50;99.90
871;DHT22;422;51.280;7.236;2022-08-19T15:23:16;29.70;99.90
871;DHT22;422;51.280;7.236;2022-08-19T15:25:43;30.20;99.90
871;DHT22;422;51.280;7.236;2022-08-19T15:28:13;29.80;99.90
871;DHT22;422;51.280;7.236;2022-08-19T15:30:43;29.20;99.90
871;DHT22;422;51.280;7.236;2022-08-19T15:33:19;29.50;99.90
871;DHT22;422;51.280;7.236;2022-08-19T15:35:47;29.00;99.90
871;DHT22;422;51.280;7.236;2022-08-19T15:38:21;29.20;99.90
871;DHT22;422;51.280;7.236;2022-08-19T15:40:49;29.20;99.90
871;DHT22;422;51.280;7.236;2022-08-19T15:43:17;29.10;99.90
871;DHT22;422;51.280;7.236;2022-08-19T15:45:50;29.40;99.90
871;DHT22;422;51.280;7.236;2022-08-19T15:48:18;29.20;99.90
871;DHT22;422;51.280;7.236;2022-08-19T15:50:45;29.10;99.90
871;DHT22;422;51.280;7.236;2022-08-19T15:53:12;28.60;99.90
871;DHT22;422;51.280;7.236;2022-08-19T15:55:43;28.90;99.90
871;DHT22;422;51.280;7.236;2022-08-19T15:58:18;28.90;99.90
871;DHT22;422;51.280;7.236;2022-08-19T16:01:06;29.10;99.90
871;DHT22;422;51.280;7.236;2022-08-19T16:03:55;29.10;99.90
871;DHT22;422;51.280;7.236;2022-08-19T16:06:47;29.00;99.90
871;DHT22;422;51.280;7.236;2022-08-19T16:09:23;28.40;99.90
871;DHT22;422;51.280;7.236;2022-08-19T16:11:58;28.20;99.90
871;DHT22;422;51.280;7.236;2022-08-19T16:14:28;28.00;99.90
871;DHT22;422;51.280;7.236;2022-08-19T16:16:55;27.40;99.90
871;DHT22;422;51.280;7.236;2022-08-19T16:19:24;27.40;99.90
871;DHT22;422;51.280;7.236;2022-08-19T16:21:58;27.20;99.90
871;DHT22;422;51.280;7.236;2022-08-19T16:24:26;27.30;99.90
871;DHT22;422;51.280;7.236;2022-08-19T16:26:55;27.00;99.90
871;DHT22;422;51.280;7.236;2022-08-19T16:29:22;26.80;99.90
871;DHT22;422;51.280;7.236;2022-08-19T16:31:55;26.90;99.90
871;DHT22;422;51.280;7.236;2022-08-19T16:34:24;26.80;99.90
871;DHT22;422;51.280;7.236;2022-08-19T16:36:52;26.50;99.90
871;DHT22;422;51.280;7.236;2022-08-19T16:39:23;26.30;99.90
871;DHT22;422;51.280;7.236;2022-08-19T16:41:51;26.00;99.90
871;DHT22;422;51.280;7.236;2022-08-19T16:44:26;26.10;99.90
871;DHT22;422;51.280;7.236;2022-08-19T16:46:57;26.10;99.90
871;DHT22;422;51.280;7.236;2022-08-19T16:49:29;26.10;99.90
871;DHT22;422;51.280;7.236;2022-08-19T16:51:57;26.00;99.90
871;DHT22;422;51.280;7.236;2022-08-19T16:54:27;26.40;99.90
871;DHT22;422;51.280;7.236;2022-08-19T16:56:54;26.60;99.90